createdAt,value
2023-05-19T00:00:34.598Z,34.88
2023-05-19T00:02:39.707Z,35.17
2023-05-19T00:04:42.570Z,35.16
2023-05-19T00:06:51.137Z,35.36
2023-05-19T00:08:59.863Z,35.50
2023-05-19T00:11:02.070Z,35.44
2023-05-19T00:13:04.220Z,35.36
2023-05-19T00:15:06.550Z,35.42
2023-05-19T00:17:08.705Z,35.72
2023-05-19T00:19:10.756Z,35.68
2023-05-19T00:21:18.923Z,35.51
2023-05-19T00:23:20.598Z,35.71
2023-05-19T00:25:22.149Z,35.78
2023-05-19T00:27:24.146Z,35.71
2023-05-19T00:29:25.832Z,35.72
2023-05-19T00:31:27.458Z,35.98
2023-05-19T00:33:30.131Z,36.00
2023-05-19T00:35:32.903Z,35.99
2023-05-19T00:37:34.470Z,36.15
2023-05-19T00:39:35.969Z,36.18
2023-05-19T00:41:37.524Z,35.94
2023-05-19T00:43:40.365Z,36.01
2023-05-19T00:45:42.128Z,36.35
2023-05-19T00:47:43.902Z,36.18
2023-05-19T00:49:51.568Z,36.24
2023-05-19T00:51:55.805Z,36.42
2023-05-19T00:54:00.504Z,36.57
2023-05-19T00:56:03.541Z,36.72
2023-05-19T00:58:06.438Z,36.55
2023-05-19T01:00:08.837Z,36.75
2023-05-19T01:02:10.570Z,36.57
2023-05-19T01:04:20.102Z,36.59
2023-05-19T01:06:28.030Z,36.62
2023-05-19T01:08:31.609Z,36.62
2023-05-19T01:10:33.745Z,36.83
2023-05-19T01:12:36.134Z,36.52
2023-05-19T01:14:37.813Z,36.74
2023-05-19T01:17:10.065Z,36.98
2023-05-19T01:19:40.780Z,36.75
2023-05-19T01:22:05.950Z,36.90
2023-05-19T01:24:22.965Z,37.29
2023-05-19T01:27:03.018Z,37.16
2023-05-19T01:29:42.603Z,37.13
2023-05-19T01:31:47.793Z,37.09
2023-05-19T01:33:54.859Z,37.25
2023-05-19T01:35:57.366Z,37.00
2023-05-19T01:38:04.924Z,37.11
2023-05-19T01:40:08.574Z,37.32
2023-05-19T01:42:11.716Z,37.42
2023-05-19T01:44:13.993Z,37.54
2023-05-19T01:46:16.281Z,37.64
2023-05-19T01:48:19.292Z,37.69
2023-05-19T01:50:21.738Z,37.65
2023-05-19T01:52:24.481Z,37.69
2023-05-19T01:54:26.114Z,37.78
2023-05-19T01:57:04.465Z,38.00
2023-05-19T01:59:22.193Z,38.61
2023-05-19T02:01:37.904Z,38.37
2023-05-19T02:04:01.371Z,38.16
2023-05-19T02:06:31.239Z,38.08
2023-05-19T02:08:42.870Z,37.96
2023-05-19T02:10:51.792Z,38.23
2023-05-19T02:12:56.061Z,38.11
2023-05-19T02:15:24.724Z,38.26
2023-05-19T02:17:29.612Z,38.05
2023-05-19T02:19:33.658Z,38.16
2023-05-19T02:21:35.518Z,38.10
2023-05-19T02:23:36.988Z,38.12
2023-05-19T02:25:38.676Z,38.14
2023-05-19T02:27:41.439Z,38.14
2023-05-19T02:29:43.155Z,38.25
2023-05-19T02:31:45.461Z,38.33
2023-05-19T02:33:47.038Z,38.40
2023-05-19T02:35:48.596Z,38.48
2023-05-19T02:37:50.253Z,38.44
2023-05-19T02:39:51.831Z,38.74
2023-05-19T02:41:53.903Z,38.47
2023-05-19T02:43:56.485Z,38.66
2023-05-19T02:45:58.003Z,38.61
2023-05-19T02:48:01.497Z,38.54
2023-05-19T02:50:03.506Z,38.65
2023-05-19T02:52:06.766Z,38.60
2023-05-19T02:54:08.450Z,38.63
2023-05-19T02:56:11.291Z,38.75
2023-05-19T02:58:13.087Z,38.47
2023-05-19T03:00:15.338Z,38.40
2023-05-19T03:02:17.757Z,38.85
2023-05-19T03:04:23.051Z,38.56
2023-05-19T03:06:25.704Z,38.81
2023-05-19T03:08:28.145Z,39.12
2023-05-19T03:10:33.143Z,38.90
2023-05-19T03:12:35.033Z,39.10
2023-05-19T03:14:37.790Z,39.35
2023-05-19T03:16:42.162Z,39.23
2023-05-19T03:18:44.145Z,39.25
2023-05-19T03:20:45.895Z,38.79
2023-05-19T03:22:47.523Z,38.91
2023-05-19T03:24:54.331Z,39.06
2023-05-19T03:26:56.001Z,39.04
2023-05-19T03:28:57.685Z,39.01
2023-05-19T03:30:59.561Z,38.94
2023-05-19T03:33:05.922Z,39.21
2023-05-19T03:35:09.958Z,39.09
2023-05-19T03:37:13.824Z,39.30
2023-05-19T03:39:16.847Z,39.40
2023-05-19T03:41:28.668Z,39.25
2023-05-19T03:43:30.771Z,39.42
2023-05-19T03:45:36.911Z,39.36
2023-05-19T03:47:52.747Z,39.33
2023-05-19T03:50:14.587Z,39.28
2023-05-19T03:52:28.646Z,39.38
2023-05-19T03:54:53.200Z,39.07
2023-05-19T03:56:54.952Z,39.27
2023-05-19T03:58:56.606Z,39.33
2023-05-19T04:00:58.130Z,39.48
2023-05-19T04:03:00.558Z,39.47
2023-05-19T04:05:06.956Z,39.13
2023-05-19T04:07:08.450Z,39.23
2023-05-19T04:09:19.553Z,39.31
2023-05-19T04:11:28.727Z,39.17
2023-05-19T04:13:34.549Z,39.51
2023-05-19T04:15:36.408Z,39.76
2023-05-19T04:17:38.380Z,39.88
2023-05-19T04:19:42.301Z,39.52
2023-05-19T04:21:43.770Z,39.72
2023-05-19T04:23:45.372Z,40.04
2023-05-19T04:25:49.023Z,39.93
2023-05-19T04:27:57.826Z,40.10
2023-05-19T04:30:00.064Z,40.01
2023-05-19T04:32:01.657Z,40.45
2023-05-19T04:34:03.238Z,40.59
2023-05-19T04:36:10.470Z,40.37
2023-05-19T04:38:18.831Z,40.41
2023-05-19T04:40:23.771Z,40.29
2023-05-19T04:42:30.691Z,40.28
2023-05-19T04:44:34.091Z,40.28
2023-05-19T04:46:36.214Z,40.34
2023-05-19T04:48:38.180Z,40.40
2023-05-19T04:50:42.263Z,40.65
2023-05-19T04:52:47.704Z,40.45
2023-05-19T04:54:50.879Z,40.55
2023-05-19T04:56:55.489Z,41.23
2023-05-19T04:59:00.152Z,40.63
2023-05-19T05:01:02.375Z,41.10
2023-05-19T05:03:08.064Z,41.05
2023-05-19T05:05:10.192Z,40.94
2023-05-19T05:07:12.700Z,40.93
2023-05-19T05:09:18.440Z,40.85
2023-05-19T05:11:20.556Z,42.08
2023-05-19T05:13:24.103Z,41.70
2023-05-19T05:15:29.889Z,41.44
2023-05-19T05:17:35.453Z,41.07
2023-05-19T05:19:38.791Z,41.52
2023-05-19T05:21:41.734Z,41.23
2023-05-19T05:23:47.169Z,42.20
2023-05-19T05:25:50.375Z,41.52
2023-05-19T05:28:00.830Z,41.53
2023-05-19T05:30:02.509Z,41.63
2023-05-19T05:32:04.376Z,42.00
2023-05-19T05:34:06.866Z,42.29
2023-05-19T05:36:16.574Z,41.91
2023-05-19T05:38:18.252Z,41.81
2023-05-19T05:40:20.308Z,41.99
2023-05-19T05:42:22.489Z,41.88
2023-05-19T05:44:24.451Z,42.74
2023-05-19T05:46:26.174Z,42.31
2023-05-19T05:48:29.497Z,42.43
2023-05-19T05:50:41.476Z,42.39
2023-05-19T05:52:48.572Z,42.67
2023-05-19T05:54:55.431Z,42.52
2023-05-19T05:57:00.148Z,42.30
2023-05-19T05:59:02.826Z,42.37
2023-05-19T06:01:08.117Z,42.60
2023-05-19T06:03:22.016Z,43.21
2023-05-19T06:05:29.528Z,42.39
2023-05-19T06:07:32.093Z,42.36
2023-05-19T06:09:37.762Z,41.96
2023-05-19T06:11:41.021Z,41.99
2023-05-19T06:13:50.514Z,42.02
2023-05-19T06:16:15.503Z,41.79
2023-05-19T06:18:20.473Z,42.15
2023-05-19T06:20:31.966Z,41.76
2023-05-19T06:22:34.130Z,41.52
2023-05-19T06:24:39.351Z,41.65
2023-05-19T06:26:46.137Z,41.80
2023-05-19T06:28:50.588Z,41.50
2023-05-19T06:30:52.088Z,41.63
2023-05-19T06:33:03.857Z,41.51
2023-05-19T06:35:05.678Z,41.45
2023-05-19T06:37:12.305Z,41.39
2023-05-19T06:39:19.980Z,41.22
2023-05-19T06:41:21.907Z,41.27
2023-05-19T06:43:26.038Z,41.14
2023-05-19T06:45:33.524Z,41.27
2023-05-19T06:47:44.614Z,41.21
2023-05-19T06:49:51.493Z,41.27
2023-05-19T06:51:55.675Z,41.12
2023-05-19T06:53:57.782Z,41.22
2023-05-19T06:56:03.310Z,41.16
2023-05-19T06:58:09.326Z,41.42
2023-05-19T07:00:18.793Z,41.04
2023-05-19T07:02:26.195Z,41.10
2023-05-19T07:04:39.868Z,40.93
2023-05-19T07:06:51.416Z,41.15
2023-05-19T07:08:56.715Z,41.00
2023-05-19T07:10:59.445Z,40.99
2023-05-19T07:13:04.515Z,40.91
2023-05-19T07:15:08.396Z,40.96
2023-05-19T07:17:11.147Z,40.84
2023-05-19T07:19:21.476Z,40.75
2023-05-19T07:21:23.128Z,40.72
2023-05-19T07:23:25.638Z,40.77
2023-05-19T07:25:31.798Z,40.65
2023-05-19T07:27:36.129Z,40.55
2023-05-19T07:29:37.673Z,40.60
2023-05-19T07:31:39.490Z,40.47
2023-05-19T07:33:41.401Z,40.35
2023-05-19T07:35:47.044Z,40.41
2023-05-19T07:37:49.387Z,40.42
2023-05-19T07:39:53.882Z,40.52
2023-05-19T07:41:58.538Z,40.53
2023-05-19T07:44:00.303Z,40.54
2023-05-19T07:46:01.977Z,40.43
2023-05-19T07:48:10.138Z,40.38
2023-05-19T07:50:11.803Z,40.19
2023-05-19T07:52:13.358Z,40.48
2023-05-19T07:54:15.518Z,40.48
2023-05-19T07:56:17.284Z,40.31
2023-05-19T07:58:21.010Z,40.12
2023-05-19T08:00:22.815Z,40.31
2023-05-19T08:02:24.452Z,40.00
2023-05-19T08:04:26.134Z,40.15
2023-05-19T08:06:30.113Z,40.19
2023-05-19T08:08:33.396Z,40.43
2023-05-19T08:10:35.024Z,40.38
2023-05-19T08:12:41.402Z,40.81
2023-05-19T08:14:42.982Z,40.57
2023-05-19T08:16:47.555Z,40.94
2023-05-19T08:18:49.150Z,41.11
2023-05-19T08:20:53.840Z,40.98
2023-05-19T08:22:59.704Z,41.15
2023-05-19T08:25:04.174Z,41.21
2023-05-19T08:27:06.791Z,41.00
2023-05-19T08:29:08.502Z,40.71
2023-05-19T08:31:11.810Z,40.49
2023-05-19T08:33:13.567Z,40.33
2023-05-19T08:35:15.286Z,40.44
2023-05-19T08:37:16.936Z,39.95
2023-05-19T08:39:24.434Z,40.29
2023-05-19T08:41:30.483Z,39.99
2023-05-19T08:43:39.526Z,39.52
2023-05-19T08:45:45.707Z,39.27
2023-05-19T08:47:47.654Z,39.48
2023-05-19T08:49:56.307Z,39.25
2023-05-19T08:52:15.275Z,38.83
2023-05-19T08:54:18.124Z,38.90
2023-05-19T08:56:24.768Z,38.55
2023-05-19T08:58:28.802Z,38.78
2023-05-19T09:00:30.986Z,38.50
2023-05-19T09:02:33.331Z,38.57
2023-05-19T09:04:39.576Z,38.24
2023-05-19T09:06:41.191Z,38.39
2023-05-19T09:08:47.423Z,38.36
2023-05-19T09:10:49.101Z,38.39
2023-05-19T09:12:51.594Z,38.47
2023-05-19T09:14:56.730Z,38.25
2023-05-19T09:16:58.381Z,37.87
2023-05-19T09:19:01.114Z,37.78
2023-05-19T09:21:03.301Z,37.98
2023-05-19T09:23:05.736Z,38.00
2023-05-19T09:25:19.578Z,37.34
2023-05-19T09:27:26.872Z,37.56
2023-05-19T09:29:28.429Z,37.59
2023-05-19T09:31:35.092Z,37.80
2023-05-19T09:33:45.606Z,37.68
2023-05-19T09:35:48.152Z,37.66
2023-05-19T09:37:52.423Z,37.29
2023-05-19T09:39:57.227Z,37.41
2023-05-19T09:41:59.178Z,37.32
2023-05-19T09:44:00.742Z,37.38
2023-05-19T09:46:11.846Z,36.93
2023-05-19T09:48:16.042Z,36.88
2023-05-19T09:50:17.749Z,36.76
2023-05-19T09:52:20.842Z,37.17
2023-05-19T09:54:23.944Z,36.85
2023-05-19T09:56:26.068Z,37.15
2023-05-19T09:58:37.092Z,37.06
2023-05-19T10:00:39.149Z,36.93
2023-05-19T10:02:43.804Z,36.82
2023-05-19T10:04:47.560Z,37.05
2023-05-19T10:06:53.663Z,37.03
2023-05-19T10:08:56.136Z,37.07
2023-05-19T10:10:57.920Z,36.38
2023-05-19T10:13:00.784Z,36.50
2023-05-19T10:15:05.426Z,36.52
2023-05-19T10:17:08.020Z,36.40
2023-05-19T10:19:11.406Z,36.75
2023-05-19T10:21:14.688Z,36.59
2023-05-19T10:23:16.335Z,36.58
2023-05-19T10:25:20.044Z,36.54
2023-05-19T10:27:26.036Z,36.38
2023-05-19T10:29:30.012Z,36.02
2023-05-19T10:31:33.818Z,35.98
2023-05-19T10:33:53.244Z,36.09
2023-05-19T10:36:24.334Z,35.81
2023-05-19T10:38:42.948Z,35.93
2023-05-19T10:41:08.097Z,36.17
2023-05-19T10:43:31.227Z,35.68
2023-05-19T10:45:41.705Z,35.62
2023-05-19T10:47:44.467Z,35.83
2023-05-19T10:49:46.761Z,35.59
2023-05-19T10:51:48.621Z,35.66
2023-05-19T10:53:50.920Z,35.84
2023-05-19T10:55:53.678Z,36.03
2023-05-19T10:57:58.804Z,36.09
2023-05-19T11:00:11.160Z,35.75
2023-05-19T11:02:37.842Z,35.75
2023-05-19T11:04:51.772Z,35.88
2023-05-19T11:06:54.733Z,36.19
2023-05-19T11:09:12.553Z,35.77
2023-05-19T11:11:18.157Z,35.86
2023-05-19T11:13:22.664Z,35.76
2023-05-19T11:15:28.062Z,36.05
2023-05-19T11:17:31.786Z,35.99
2023-05-19T11:19:35.964Z,36.13
2023-05-19T11:21:52.671Z,35.40
2023-05-19T11:23:57.158Z,35.01
2023-05-19T11:26:02.324Z,35.43
2023-05-19T11:28:05.431Z,35.55
2023-05-19T11:30:15.195Z,35.54
2023-05-19T11:32:17.427Z,35.41
2023-05-19T11:34:19.732Z,35.38
2023-05-19T11:36:22.656Z,35.04
2023-05-19T11:38:24.520Z,35.41
2023-05-19T11:40:29.705Z,35.70
2023-05-19T11:42:31.890Z,35.26
2023-05-19T11:44:33.536Z,35.48
2023-05-19T11:46:35.136Z,35.72
2023-05-19T11:48:37.194Z,35.51
2023-05-19T11:50:41.409Z,35.55
2023-05-19T11:52:47.647Z,35.46
2023-05-19T11:54:49.567Z,35.34
2023-05-19T11:56:51.249Z,35.67
2023-05-19T11:58:53.305Z,35.45
2023-05-19T12:00:55.119Z,35.10
2023-05-19T12:02:57.609Z,34.87
2023-05-19T12:04:59.359Z,34.83
2023-05-19T12:07:04.071Z,34.96
2023-05-19T12:09:05.771Z,34.85
2023-05-19T12:11:07.371Z,35.12
2023-05-19T12:13:09.997Z,34.81
2023-05-19T12:15:12.029Z,34.97
2023-05-19T12:17:15.868Z,35.03
2023-05-19T12:19:17.455Z,35.33
2023-05-19T12:21:19.228Z,35.13
2023-05-19T12:23:24.627Z,34.92
2023-05-19T12:25:27.854Z,35.18
2023-05-19T12:27:29.389Z,35.29
2023-05-19T12:29:33.912Z,35.65
2023-05-19T12:31:35.913Z,35.28
2023-05-19T12:33:37.647Z,35.71
2023-05-19T12:35:42.902Z,35.54
2023-05-19T12:37:44.578Z,34.97
2023-05-19T12:39:46.410Z,35.60
2023-05-19T12:41:48.021Z,35.48
2023-05-19T12:43:50.721Z,34.73
2023-05-19T12:45:52.434Z,34.62
2023-05-19T12:47:54.783Z,35.08
2023-05-19T12:49:59.389Z,33.66
2023-05-19T12:52:05.185Z,34.06
2023-05-19T12:54:09.297Z,34.49
2023-05-19T12:56:17.443Z,33.84
2023-05-19T12:58:19.059Z,33.90
2023-05-19T13:00:32.813Z,33.41
2023-05-19T13:02:36.482Z,33.47
2023-05-19T13:04:38.851Z,34.05
2023-05-19T13:06:46.004Z,33.55
2023-05-19T13:08:47.907Z,33.21
2023-05-19T13:10:49.819Z,33.48
2023-05-19T13:12:51.956Z,33.50
2023-05-19T13:14:55.519Z,33.37
2023-05-19T13:17:04.952Z,33.27
2023-05-19T13:19:24.377Z,33.59
2023-05-19T13:21:27.529Z,33.65
2023-05-19T13:23:29.112Z,33.38
2023-05-19T13:25:31.056Z,33.52
2023-05-19T13:27:32.738Z,33.33
2023-05-19T13:29:34.329Z,33.65
2023-05-19T13:31:36.364Z,33.68
2023-05-19T13:33:37.955Z,33.46
2023-05-19T13:35:39.838Z,33.55
2023-05-19T13:37:42.297Z,33.55
2023-05-19T13:39:44.138Z,33.62
2023-05-19T13:41:46.793Z,33.18
2023-05-19T13:43:48.472Z,32.88
2023-05-19T13:45:50.156Z,33.38
2023-05-19T13:47:51.787Z,33.61
2023-05-19T13:49:53.520Z,33.41
2023-05-19T13:51:58.350Z,32.97
2023-05-19T13:53:59.844Z,33.42
2023-05-19T13:56:01.433Z,33.04
2023-05-19T13:58:03.553Z,32.55
2023-05-19T14:00:06.026Z,32.95
2023-05-19T14:02:16.368Z,32.77
2023-05-19T14:04:18.784Z,32.68
2023-05-19T14:06:20.526Z,32.81
2023-05-19T14:08:26.006Z,32.58
2023-05-19T14:10:27.599Z,32.96
2023-05-19T14:12:39.340Z,32.57
2023-05-19T14:14:52.368Z,32.91
2023-05-19T14:16:56.836Z,32.88
2023-05-19T14:18:58.481Z,32.23
2023-05-19T14:21:00.168Z,32.80
2023-05-19T14:23:06.150Z,32.46
2023-05-19T14:25:08.542Z,32.74
2023-05-19T14:27:10.328Z,32.39
2023-05-19T14:29:11.993Z,32.79
2023-05-19T14:31:13.904Z,32.64
2023-05-19T14:33:18.722Z,32.71
2023-05-19T14:35:20.338Z,32.39
2023-05-19T14:37:21.866Z,32.70
2023-05-19T14:39:23.502Z,32.76
2023-05-19T14:41:26.262Z,32.98
2023-05-19T14:43:27.801Z,32.40
2023-05-19T14:45:32.050Z,32.67
2023-05-19T14:47:33.641Z,32.55
2023-05-19T14:49:35.588Z,32.44
2023-05-19T14:51:37.166Z,32.88
2023-05-19T14:53:39.005Z,32.83
2023-05-19T14:55:49.664Z,32.88
2023-05-19T14:57:51.208Z,32.77
2023-05-19T14:59:52.882Z,33.00
2023-05-19T15:01:54.554Z,32.56
2023-05-19T15:03:56.279Z,32.80
2023-05-19T15:05:57.996Z,32.50
2023-05-19T15:07:59.609Z,32.45
2023-05-19T15:10:02.084Z,32.66
2023-05-19T15:12:03.910Z,32.80
2023-05-19T15:14:05.608Z,32.87
2023-05-19T15:16:17.436Z,32.55
2023-05-19T15:18:19.962Z,32.55
2023-05-19T15:20:21.621Z,32.71
2023-05-19T15:22:23.257Z,32.62
2023-05-19T15:24:25.410Z,32.64
2023-05-19T15:26:29.567Z,32.97
2023-05-19T15:28:34.505Z,32.66
2023-05-19T15:30:36.185Z,33.04
2023-05-19T15:32:38.238Z,32.84
2023-05-19T15:34:39.813Z,32.68
2023-05-19T15:36:41.432Z,32.58
2023-05-19T15:38:43.087Z,32.92
2023-05-19T15:40:44.652Z,32.97
2023-05-19T15:42:49.110Z,33.08
2023-05-19T15:44:50.833Z,32.91
2023-05-19T15:46:52.526Z,33.19
2023-05-19T15:48:54.991Z,33.26
2023-05-19T15:50:59.176Z,33.04
2023-05-19T15:53:00.707Z,32.91
2023-05-19T15:55:02.265Z,33.36
2023-05-19T15:57:06.872Z,33.41
2023-05-19T15:59:08.414Z,33.17
2023-05-19T16:01:10.188Z,32.95
2023-05-19T16:03:12.015Z,33.39
2023-05-19T16:05:13.605Z,32.96
2023-05-19T16:07:16.989Z,33.09
2023-05-19T16:09:18.703Z,33.33
2023-05-19T16:11:21.192Z,33.27
2023-05-19T16:13:23.352Z,33.16
2023-05-19T16:15:24.922Z,32.98
2023-05-19T16:17:26.524Z,33.35
2023-05-19T16:19:28.552Z,33.04
2023-05-19T16:21:33.071Z,33.08
2023-05-19T16:23:40.641Z,33.22
2023-05-19T16:25:42.217Z,33.41
2023-05-19T16:27:46.139Z,33.27
2023-05-19T16:29:47.850Z,33.18
2023-05-19T16:31:49.552Z,33.52
2023-05-19T16:33:51.237Z,33.52
2023-05-19T16:35:55.775Z,33.18
2023-05-19T16:37:57.435Z,33.67
2023-05-19T16:39:59.301Z,33.51
2023-05-19T16:42:00.837Z,33.59
2023-05-19T16:44:02.705Z,33.78
2023-05-19T16:46:05.351Z,33.73
2023-05-19T16:48:07.435Z,33.39
2023-05-19T16:50:12.535Z,33.52
2023-05-19T16:52:14.147Z,33.30
2023-05-19T16:54:15.755Z,33.56
2023-05-19T16:56:17.602Z,33.51
2023-05-19T16:58:19.436Z,33.55
2023-05-19T17:00:21.063Z,33.76
2023-05-19T17:02:22.588Z,33.45
2023-05-19T17:04:24.393Z,33.76
2023-05-19T17:06:25.965Z,33.43
2023-05-19T17:08:27.641Z,33.41
2023-05-19T17:10:29.167Z,33.71
2023-05-19T17:12:30.785Z,33.22
2023-05-19T17:14:32.456Z,33.64
2023-05-19T17:16:35.882Z,33.49
2023-05-19T17:18:37.579Z,33.48
2023-05-19T17:20:39.175Z,33.87
2023-05-19T17:22:41.138Z,33.72
2023-05-19T17:24:42.759Z,33.83
2023-05-19T17:26:47.061Z,33.87
2023-05-19T17:28:48.961Z,33.76
2023-05-19T17:30:50.599Z,33.31
2023-05-19T17:32:52.423Z,33.36
2023-05-19T17:34:54.522Z,33.48
2023-05-19T17:36:56.171Z,33.72
2023-05-19T17:39:00.782Z,33.50
2023-05-19T17:41:02.997Z,33.78
2023-05-19T17:43:06.078Z,33.63
2023-05-19T17:45:11.899Z,33.98
2023-05-19T17:47:13.505Z,33.89
2023-05-19T17:49:18.138Z,33.54
2023-05-19T17:51:27.308Z,33.42
2023-05-19T17:53:29.608Z,33.34
2023-05-19T17:55:31.580Z,33.66
2023-05-19T17:57:37.280Z,33.55
2023-05-19T17:59:39.282Z,33.31
2023-05-19T18:01:44.054Z,33.23
2023-05-19T18:03:49.807Z,33.41
2023-05-19T18:05:54.904Z,33.13
2023-05-19T18:07:57.471Z,33.39
2023-05-19T18:10:00.793Z,33.37
2023-05-19T18:12:02.534Z,33.29
2023-05-19T18:14:04.099Z,33.45
2023-05-19T18:16:05.995Z,33.01
2023-05-19T18:18:10.462Z,33.12
2023-05-19T18:20:13.683Z,33.14
2023-05-19T18:22:15.347Z,33.33
2023-05-19T18:24:19.357Z,32.93
2023-05-19T18:26:21.494Z,32.85
2023-05-19T18:28:24.013Z,33.02
2023-05-19T18:30:25.587Z,33.20
2023-05-19T18:32:27.184Z,32.80
2023-05-19T18:34:30.643Z,33.19
2023-05-19T18:36:32.188Z,33.24
2023-05-19T18:38:33.708Z,32.95
2023-05-19T18:40:35.576Z,33.22
2023-05-19T18:42:37.902Z,33.25
2023-05-19T18:44:39.697Z,33.25
2023-05-19T18:46:41.459Z,32.84
2023-05-19T18:48:42.996Z,33.17
2023-05-19T18:50:47.080Z,33.02
2023-05-19T18:52:48.875Z,33.31
2023-05-19T18:54:50.781Z,33.08
2023-05-19T18:56:52.358Z,33.60
2023-05-19T18:58:54.560Z,33.06
2023-05-19T19:00:56.631Z,33.57
2023-05-19T19:02:58.637Z,33.29
2023-05-19T19:05:00.327Z,34.07
2023-05-19T19:07:02.310Z,34.10
2023-05-19T19:09:04.033Z,34.04
2023-05-19T19:11:09.221Z,34.05
2023-05-19T19:13:10.893Z,33.86
2023-05-19T19:15:15.567Z,33.98
2023-05-19T19:17:17.976Z,33.80
2023-05-19T19:19:19.743Z,33.85
2023-05-19T19:21:24.252Z,33.57
2023-05-19T19:23:25.975Z,33.38
2023-05-19T19:25:28.015Z,33.65
2023-05-19T19:27:31.254Z,33.12
2023-05-19T19:29:37.510Z,33.14
2023-05-19T19:31:43.191Z,33.29
2023-05-19T19:33:44.992Z,33.27
2023-05-19T19:35:49.854Z,32.94
2023-05-19T19:37:57.020Z,33.08
2023-05-19T19:39:59.542Z,32.75
2023-05-19T19:42:04.088Z,32.93
2023-05-19T19:44:05.791Z,32.86
2023-05-19T19:46:09.187Z,32.75
2023-05-19T19:48:12.110Z,32.27
2023-05-19T19:50:15.203Z,32.53
2023-05-19T19:52:17.013Z,32.64
2023-05-19T19:54:18.580Z,32.60
2023-05-19T19:56:23.256Z,32.27
2023-05-19T19:58:25.368Z,32.47
2023-05-19T20:00:26.884Z,32.31
2023-05-19T20:02:28.680Z,32.25
2023-05-19T20:04:33.526Z,31.77
2023-05-19T20:06:41.195Z,31.72
2023-05-19T20:08:42.688Z,31.77
2023-05-19T20:10:46.473Z,31.82
2023-05-19T20:12:48.558Z,31.70
2023-05-19T20:14:53.281Z,31.73
2023-05-19T20:16:56.173Z,32.14
2023-05-19T20:19:02.731Z,32.18
2023-05-19T20:21:04.370Z,32.09
2023-05-19T20:23:07.760Z,31.69
2023-05-19T20:25:11.146Z,31.75
2023-05-19T20:27:12.833Z,31.72
2023-05-19T20:29:14.376Z,31.70
2023-05-19T20:31:18.591Z,32.17
2023-05-19T20:33:20.403Z,32.07
2023-05-19T20:35:22.906Z,31.83
2023-05-19T20:37:24.417Z,31.86
2023-05-19T20:39:25.876Z,32.17
2023-05-19T20:41:27.408Z,32.24
2023-05-19T20:43:29.195Z,32.30
2023-05-19T20:45:31.000Z,32.29
2023-05-19T20:47:32.719Z,32.55
2023-05-19T20:49:34.671Z,32.29
2023-05-19T20:51:36.290Z,32.35
2023-05-19T20:53:37.864Z,32.45
2023-05-19T20:55:39.437Z,32.46
2023-05-19T20:57:41.180Z,32.69
2023-05-19T20:59:42.743Z,32.44
2023-05-19T21:01:45.325Z,32.82
2023-05-19T21:03:47.200Z,32.84
2023-05-19T21:05:48.811Z,33.21
2023-05-19T21:07:53.249Z,33.25
2023-05-19T21:09:55.057Z,33.51
2023-05-19T21:11:56.630Z,33.52
2023-05-19T21:13:58.688Z,33.66
2023-05-19T21:16:03.006Z,33.63
2023-05-19T21:18:04.754Z,33.92
2023-05-19T21:20:06.961Z,33.99
2023-05-19T21:22:08.790Z,34.03
2023-05-19T21:24:12.725Z,34.14
2023-05-19T21:26:14.408Z,34.42
2023-05-19T21:28:16.213Z,34.33
2023-05-19T21:30:17.791Z,34.42
2023-05-19T21:32:20.037Z,34.78
2023-05-19T21:34:25.489Z,34.51
2023-05-19T21:36:27.110Z,34.93
2023-05-19T21:38:28.784Z,35.02
2023-05-19T21:40:32.109Z,35.24
2023-05-19T21:42:34.834Z,35.29
2023-05-19T21:44:36.398Z,35.24
2023-05-19T21:46:38.115Z,35.15
2023-05-19T21:48:45.689Z,35.39
2023-05-19T21:50:57.445Z,35.55
2023-05-19T21:52:59.175Z,35.55
2023-05-19T21:55:03.341Z,35.68
2023-05-19T21:57:05.070Z,35.78
2023-05-19T21:59:09.838Z,35.82
2023-05-19T22:01:15.355Z,36.20
2023-05-19T22:03:18.644Z,35.84
2023-05-19T22:05:20.826Z,36.05
2023-05-19T22:07:26.749Z,36.15
2023-05-19T22:09:29.240Z,36.36
2023-05-19T22:11:30.817Z,36.17
2023-05-19T22:13:35.112Z,36.34
2023-05-19T22:15:39.410Z,36.26
2023-05-19T22:17:41.802Z,36.65
2023-05-19T22:19:45.359Z,36.71
2023-05-19T22:21:47.222Z,36.66
2023-05-19T22:23:48.739Z,36.94
2023-05-19T22:25:50.653Z,36.85
2023-05-19T22:27:52.202Z,36.84
2023-05-19T22:29:53.854Z,37.30
2023-05-19T22:31:55.552Z,36.77
2023-05-19T22:34:03.167Z,37.10
2023-05-19T22:36:04.842Z,37.30
2023-05-19T22:38:07.538Z,37.12
2023-05-19T22:40:14.018Z,37.10
2023-05-19T22:42:15.787Z,37.12
2023-05-19T22:44:19.532Z,37.47
2023-05-19T22:46:21.287Z,37.48
2023-05-19T22:48:25.791Z,37.40
2023-05-19T22:50:27.530Z,37.42
2023-05-19T22:52:29.251Z,37.68
2023-05-19T22:54:30.918Z,37.45
2023-05-19T22:56:43.160Z,37.85
2023-05-19T22:58:45.921Z,37.55
2023-05-19T23:00:49.890Z,37.92
2023-05-19T23:02:51.620Z,37.84
2023-05-19T23:04:55.724Z,38.06
2023-05-19T23:06:57.505Z,37.85
2023-05-19T23:09:01.963Z,38.23
2023-05-19T23:11:04.266Z,37.90
2023-05-19T23:13:06.033Z,38.19
2023-05-19T23:15:09.659Z,38.39
2023-05-19T23:17:11.815Z,38.05
2023-05-19T23:19:13.698Z,38.01
2023-05-19T23:21:18.220Z,38.35
2023-05-19T23:23:19.824Z,38.07
2023-05-19T23:25:21.879Z,38.23
2023-05-19T23:27:23.418Z,38.25
2023-05-19T23:29:25.185Z,38.69
2023-05-19T23:31:29.239Z,38.29
2023-05-19T23:33:31.162Z,38.61
2023-05-19T23:35:49.059Z,38.74
2023-05-19T23:37:51.204Z,38.67
2023-05-19T23:39:52.811Z,38.99
2023-05-19T23:41:54.294Z,38.57
2023-05-19T23:43:58.366Z,38.71
2023-05-19T23:46:01.426Z,39.19
2023-05-19T23:48:06.110Z,39.29
2023-05-19T23:50:08.173Z,38.75
2023-05-19T23:52:09.796Z,39.06
2023-05-19T23:54:14.099Z,39.17
2023-05-19T23:56:16.098Z,39.18
2023-05-19T23:58:18.331Z,39.27
